createdAt,value
2022-11-29T00:01:44.255Z,4.78
2022-11-29T00:04:11.629Z,4.99
2022-11-29T00:06:38.750Z,4.64
2022-11-29T00:09:07.136Z,5.13
2022-11-29T00:11:54.327Z,5.75
2022-11-29T00:14:21.917Z,5.25
2022-11-29T00:16:53.410Z,4.96
2022-11-29T00:19:20.742Z,5.29
2022-11-29T00:21:47.868Z,4.77
2022-11-29T00:24:15.247Z,5.04
2022-11-29T00:26:42.348Z,4.63
2022-11-29T00:29:10.532Z,4.09
2022-11-29T00:31:37.907Z,4.16
2022-11-29T00:34:06.907Z,5.22
2022-11-29T00:36:34.670Z,6.09
2022-11-29T00:39:02.671Z,4.88
2022-11-29T00:41:29.895Z,5.15
2022-11-29T00:43:56.998Z,5.46
2022-11-29T00:46:25.195Z,5.68
2022-11-29T00:48:52.345Z,5.45
2022-11-29T00:51:19.592Z,5.40
2022-11-29T00:53:46.959Z,5.85
2022-11-29T00:56:14.108Z,5.18
2022-11-29T00:58:43.505Z,5.17
2022-11-29T01:01:11.585Z,5.12
2022-11-29T01:03:38.776Z,5.32
2022-11-29T01:06:07.151Z,5.82
2022-11-29T01:08:34.510Z,5.60
2022-11-29T01:11:02.844Z,5.91
2022-11-29T01:13:29.946Z,6.33
2022-11-29T01:15:57.700Z,5.52
2022-11-29T01:18:25.039Z,5.81
2022-11-29T01:20:55.968Z,5.98
2022-11-29T01:23:23.342Z,6.09
2022-11-29T01:26:00.504Z,6.07
2022-11-29T01:28:28.212Z,5.86
2022-11-29T01:30:55.519Z,5.10
2022-11-29T01:33:22.711Z,5.08
2022-11-29T01:35:54.108Z,4.97
2022-11-29T01:38:21.634Z,5.86
2022-11-29T01:40:58.554Z,5.54
2022-11-29T01:43:26.028Z,5.96
2022-11-29T01:45:54.161Z,7.03
2022-11-29T01:48:23.341Z,6.01
2022-11-29T01:50:50.801Z,6.23
2022-11-29T01:53:17.959Z,5.91
2022-11-29T01:55:46.184Z,6.04
2022-11-29T01:58:13.816Z,6.38
2022-11-29T02:00:40.868Z,6.38
2022-11-29T02:03:10.312Z,6.00
2022-11-29T02:05:38.682Z,5.60
2022-11-29T02:08:06.980Z,5.44
2022-11-29T02:10:38.706Z,5.72
2022-11-29T02:13:11.592Z,5.76
2022-11-29T02:15:39.042Z,5.05
2022-11-29T02:18:10.926Z,5.00
2022-11-29T02:20:42.836Z,5.58
2022-11-29T02:23:16.202Z,5.11
2022-11-29T02:25:49.190Z,5.29
2022-11-29T02:28:19.640Z,5.47
2022-11-29T02:30:55.713Z,6.41
2022-11-29T02:33:32.069Z,5.12
2022-11-29T02:36:03.539Z,5.69
2022-11-29T02:38:37.413Z,6.31
2022-11-29T02:41:13.791Z,6.24
2022-11-29T02:43:47.261Z,6.60
2022-11-29T02:46:33.295Z,6.77
2022-11-29T02:49:00.674Z,6.21
2022-11-29T02:51:30.770Z,5.64
2022-11-29T02:54:20.388Z,5.27
2022-11-29T02:56:55.025Z,5.98
2022-11-29T02:59:30.766Z,6.27
2022-11-29T03:02:02.344Z,6.17
2022-11-29T03:04:32.630Z,5.23
2022-11-29T03:07:04.833Z,6.14
2022-11-29T03:09:40.738Z,6.17
2022-11-29T03:12:16.488Z,5.53
2022-11-29T03:14:52.494Z,5.76
2022-11-29T03:17:31.011Z,6.51
2022-11-29T03:20:00.764Z,6.39
2022-11-29T03:22:37.341Z,6.46
2022-11-29T03:25:08.427Z,6.33
2022-11-29T03:27:41.429Z,5.61
2022-11-29T03:30:10.147Z,6.02
2022-11-29T03:32:37.443Z,6.52
2022-11-29T03:35:04.524Z,6.92
2022-11-29T03:37:40.565Z,6.35
2022-11-29T03:40:09.820Z,6.08
2022-11-29T03:42:49.171Z,6.09
2022-11-29T03:45:19.178Z,5.98
2022-11-29T03:48:00.191Z,6.49
2022-11-29T03:50:29.419Z,7.66
2022-11-29T03:52:58.119Z,6.99
2022-11-29T03:55:30.973Z,6.69
2022-11-29T03:58:16.737Z,6.80
2022-11-29T04:00:44.062Z,5.88
2022-11-29T04:03:24.979Z,5.98
2022-11-29T04:06:11.036Z,6.57
2022-11-29T04:08:38.331Z,6.71
2022-11-29T04:11:23.424Z,6.26
2022-11-29T04:14:02.182Z,6.73
2022-11-29T04:16:32.196Z,6.19
2022-11-29T04:19:18.453Z,5.93
2022-11-29T04:22:07.502Z,5.38
2022-11-29T04:24:55.001Z,5.61
2022-11-29T04:27:43.870Z,5.41
2022-11-29T04:30:14.567Z,6.40
2022-11-29T04:32:41.612Z,5.79
2022-11-29T04:35:11.872Z,5.35
2022-11-29T04:37:39.179Z,6.24
2022-11-29T04:40:06.207Z,6.60
2022-11-29T04:42:42.906Z,5.73
2022-11-29T04:45:30.070Z,4.80
2022-11-29T04:48:04.559Z,4.73
2022-11-29T04:50:50.657Z,4.70
2022-11-29T04:53:24.719Z,4.55
2022-11-29T04:55:55.364Z,4.79
2022-11-29T04:58:34.303Z,5.43
2022-11-29T05:01:20.614Z,5.28
2022-11-29T05:03:57.529Z,4.36
2022-11-29T05:06:29.918Z,4.86
2022-11-29T05:09:03.870Z,5.39
2022-11-29T05:11:43.571Z,5.09
2022-11-29T05:14:29.494Z,4.96
2022-11-29T05:17:15.763Z,5.15
2022-11-29T05:20:04.209Z,5.39
2022-11-29T05:22:38.851Z,5.56
2022-11-29T05:25:21.174Z,4.85
2022-11-29T05:27:50.310Z,4.71
2022-11-29T05:30:22.181Z,4.87
2022-11-29T05:32:57.293Z,5.10
2022-11-29T05:35:27.698Z,5.88
2022-11-29T05:37:56.051Z,4.59
2022-11-29T05:40:29.318Z,4.97
2022-11-29T05:43:03.046Z,4.85
2022-11-29T05:45:49.087Z,5.24
2022-11-29T05:48:16.394Z,5.92
2022-11-29T05:50:46.164Z,4.75
2022-11-29T05:53:38.478Z,5.19
2022-11-29T05:56:09.294Z,5.43
2022-11-29T05:58:56.905Z,4.57
2022-11-29T06:01:25.286Z,4.74
2022-11-29T06:03:57.362Z,5.26
2022-11-29T06:06:42.836Z,5.16
2022-11-29T06:09:15.077Z,4.98
2022-11-29T06:11:42.931Z,5.18
2022-11-29T06:14:16.230Z,5.33
2022-11-29T06:16:50.790Z,5.80
2022-11-29T06:19:18.072Z,5.74
2022-11-29T06:21:59.479Z,6.66
2022-11-29T06:24:42.978Z,5.98
2022-11-29T06:27:10.451Z,6.66
2022-11-29T06:29:49.927Z,5.78
2022-11-29T06:32:16.973Z,5.33
2022-11-29T06:34:54.854Z,5.39
2022-11-29T06:37:30.005Z,5.01
2022-11-29T06:39:57.564Z,5.03
2022-11-29T06:42:24.671Z,5.00
2022-11-29T06:44:51.961Z,5.04
2022-11-29T06:47:24.003Z,5.25
2022-11-29T06:49:51.972Z,5.11
2022-11-29T06:52:40.889Z,5.25
2022-11-29T06:55:24.694Z,4.98
2022-11-29T06:58:28.351Z,5.76
2022-11-29T07:01:04.806Z,4.78
2022-11-29T07:03:35.206Z,5.30
2022-11-29T07:06:08.913Z,4.57
2022-11-29T07:08:36.283Z,4.91
2022-11-29T07:11:03.453Z,4.58
2022-11-29T07:13:30.634Z,4.97
2022-11-29T07:16:08.025Z,5.44
2022-11-29T07:18:47.063Z,6.16
2022-11-29T07:21:29.728Z,5.49
2022-11-29T07:24:05.778Z,6.52
2022-11-29T07:26:39.820Z,5.98
2022-11-29T07:29:11.519Z,5.90
2022-11-29T07:31:54.282Z,5.34
2022-11-29T07:34:41.704Z,5.65
2022-11-29T07:37:19.746Z,5.97
2022-11-29T07:39:56.257Z,5.64
2022-11-29T07:42:42.460Z,5.66
2022-11-29T07:45:09.628Z,6.20
2022-11-29T07:47:37.011Z,6.60
2022-11-29T07:50:04.237Z,6.24
2022-11-29T07:52:31.356Z,7.16
2022-11-29T07:54:58.716Z,6.20
2022-11-29T07:57:25.848Z,7.31
2022-11-29T07:59:52.937Z,7.57
2022-11-29T08:02:29.929Z,7.97
2022-11-29T08:04:57.495Z,7.47
2022-11-29T08:07:24.731Z,7.14
2022-11-29T08:09:51.894Z,7.26
2022-11-29T08:12:19.343Z,7.28
2022-11-29T08:14:46.683Z,6.71
2022-11-29T08:17:13.957Z,7.07
2022-11-29T08:19:41.325Z,6.08
2022-11-29T08:22:08.421Z,6.57
2022-11-29T08:24:35.553Z,7.24
2022-11-29T08:27:02.953Z,6.89
2022-11-29T08:29:30.103Z,7.19
2022-11-29T08:31:57.720Z,7.33
2022-11-29T08:34:25.418Z,7.85
2022-11-29T08:36:54.616Z,7.97
2022-11-29T08:39:21.891Z,7.01
2022-11-29T08:41:49.678Z,7.54
2022-11-29T08:44:16.860Z,7.93
2022-11-29T08:47:02.458Z,7.55
2022-11-29T08:49:29.834Z,6.96
2022-11-29T08:52:16.888Z,6.91
2022-11-29T08:54:44.594Z,6.54
2022-11-29T08:59:59.360Z,8.06
2022-11-29T09:02:26.514Z,7.64
2022-11-29T09:04:53.639Z,7.39
2022-11-29T09:07:21.012Z,8.21
2022-11-29T09:09:48.466Z,7.76
2022-11-29T09:12:15.581Z,7.44
2022-11-29T09:14:43.118Z,6.76
2022-11-29T09:17:10.410Z,6.65
2022-11-29T09:19:37.529Z,6.97
2022-11-29T09:22:04.940Z,7.27
2022-11-29T09:24:33.175Z,7.97
2022-11-29T09:27:00.276Z,7.16
2022-11-29T09:29:27.730Z,7.44
2022-11-29T09:31:54.852Z,7.11
2022-11-29T09:34:22.017Z,7.40
2022-11-29T09:36:49.605Z,7.19
2022-11-29T09:39:16.797Z,7.68
2022-11-29T09:42:02.621Z,7.78
2022-11-29T09:44:45.541Z,8.07
2022-11-29T09:47:21.722Z,7.53
2022-11-29T09:49:52.501Z,7.11
2022-11-29T09:52:25.692Z,6.66
2022-11-29T09:55:14.958Z,7.09
2022-11-29T09:57:43.937Z,7.73
2022-11-29T10:00:14.907Z,7.77
2022-11-29T10:02:45.532Z,8.03
2022-11-29T10:05:17.197Z,7.93
2022-11-29T10:07:48.991Z,8.41
2022-11-29T10:10:26.758Z,8.74
2022-11-29T10:13:15.722Z,7.88
2022-11-29T10:15:46.281Z,8.16
2022-11-29T10:18:23.909Z,8.14
2022-11-29T10:20:51.878Z,9.19
2022-11-29T10:23:25.356Z,9.23
2022-11-29T10:25:53.494Z,8.61
2022-11-29T10:28:21.586Z,8.31
2022-11-29T10:30:48.708Z,9.34
2022-11-29T10:33:23.242Z,9.40
2022-11-29T10:35:51.247Z,9.05
2022-11-29T10:38:33.739Z,9.14
2022-11-29T10:41:03.599Z,8.47
2022-11-29T10:43:30.689Z,9.26
2022-11-29T10:45:58.753Z,9.25
2022-11-29T10:48:27.572Z,10.03
2022-11-29T10:50:54.810Z,7.60
2022-11-29T10:53:30.903Z,8.93
2022-11-29T10:56:01.889Z,8.06
2022-11-29T10:58:29.522Z,8.68
2022-11-29T11:01:09.419Z,8.90
2022-11-29T11:03:40.996Z,8.58
2022-11-29T11:06:08.090Z,9.46
2022-11-29T11:08:35.240Z,9.47
2022-11-29T11:11:03.280Z,9.11
2022-11-29T11:13:31.074Z,9.12
2022-11-29T11:16:18.513Z,9.05
2022-11-29T11:18:46.591Z,9.20
2022-11-29T11:21:17.750Z,9.12
2022-11-29T11:23:58.284Z,9.19
2022-11-29T11:26:26.331Z,9.17
2022-11-29T11:28:59.029Z,8.38
2022-11-29T11:31:34.393Z,7.93
2022-11-29T11:34:20.451Z,6.87
2022-11-29T11:36:47.826Z,6.66
2022-11-29T11:39:19.463Z,7.86
2022-11-29T11:42:05.141Z,8.84
2022-11-29T11:44:46.794Z,8.83
2022-11-29T11:47:18.603Z,8.80
2022-11-29T11:49:47.233Z,8.94
2022-11-29T11:52:16.360Z,7.95
2022-11-29T11:54:45.221Z,8.53
2022-11-29T11:57:16.780Z,7.25
2022-11-29T11:59:46.819Z,7.55
2022-11-29T12:02:27.385Z,7.74
2022-11-29T12:04:58.782Z,8.25
2022-11-29T12:08:06.779Z,7.83
2022-11-29T12:10:28.912Z,8.51
2022-11-29T12:12:56.017Z,8.43
2022-11-29T12:15:26.978Z,9.09
2022-11-29T12:18:00.332Z,7.78
2022-11-29T12:20:44.487Z,7.71
2022-11-29T12:23:11.802Z,9.04
2022-11-29T12:25:47.986Z,8.20
2022-11-29T12:28:20.413Z,9.10
2022-11-29T12:30:48.004Z,8.49
2022-11-29T12:33:41.498Z,9.24
2022-11-29T12:36:14.374Z,8.91
2022-11-29T12:38:44.325Z,9.15
2022-11-29T12:41:26.815Z,9.05
2022-11-29T12:43:54.204Z,9.11
2022-11-29T12:46:21.271Z,9.44
2022-11-29T12:48:57.781Z,9.92
2022-11-29T12:51:34.327Z,9.99
2022-11-29T12:54:15.597Z,9.71
2022-11-29T12:57:00.991Z,10.17
2022-11-29T12:59:31.174Z,8.92
2022-11-29T13:02:04.533Z,9.45
2022-11-29T13:04:37.683Z,8.71
2022-11-29T13:07:11.527Z,10.04
2022-11-29T13:09:38.910Z,9.83
2022-11-29T13:12:13.016Z,9.11
2022-11-29T13:14:44.028Z,9.46
2022-11-29T13:17:25.477Z,9.60
2022-11-29T13:19:56.210Z,9.58
2022-11-29T13:22:23.495Z,9.33
2022-11-29T13:24:51.803Z,10.09
2022-11-29T13:27:30.140Z,9.94
2022-11-29T13:29:58.282Z,9.98
2022-11-29T13:32:34.784Z,8.38
2022-11-29T13:35:07.481Z,8.44
2022-11-29T13:37:55.126Z,9.55
2022-11-29T13:40:31.844Z,8.73
2022-11-29T13:43:17.672Z,8.00
2022-11-29T13:45:51.241Z,8.15
2022-11-29T13:48:24.969Z,8.89
2022-11-29T13:50:55.511Z,8.19
2022-11-29T13:53:23.738Z,7.77
2022-11-29T13:56:00.010Z,8.27
2022-11-29T13:58:34.754Z,7.76
2022-11-29T14:01:02.719Z,7.70
2022-11-29T14:03:31.465Z,7.50
2022-11-29T14:06:01.948Z,8.14
2022-11-29T14:08:42.478Z,7.94
2022-11-29T14:11:35.882Z,8.55
2022-11-29T14:14:05.080Z,8.04
2022-11-29T14:16:39.713Z,8.52
2022-11-29T14:19:10.111Z,8.93
2022-11-29T14:21:55.687Z,9.20
2022-11-29T14:24:32.368Z,8.64
2022-11-29T14:27:14.556Z,8.38
2022-11-29T14:29:50.942Z,9.33
2022-11-29T14:32:39.240Z,8.37
2022-11-29T14:35:11.984Z,8.07
2022-11-29T14:37:57.789Z,7.91
2022-11-29T14:40:40.563Z,8.45
2022-11-29T14:43:21.195Z,9.43
2022-11-29T14:46:06.417Z,9.63
2022-11-29T14:48:33.573Z,9.34
2022-11-29T14:51:14.508Z,9.25
2022-11-29T14:53:42.549Z,8.56
2022-11-29T14:56:28.719Z,8.21
2022-11-29T14:59:14.413Z,7.95
2022-11-29T15:01:42.797Z,7.70
2022-11-29T15:04:10.099Z,8.05
2022-11-29T15:06:44.042Z,7.01
2022-11-29T15:09:16.846Z,7.85
2022-11-29T15:11:50.228Z,8.76
2022-11-29T15:14:20.793Z,8.23
2022-11-29T15:16:50.959Z,7.51
2022-11-29T15:19:37.259Z,8.26
2022-11-29T15:22:09.748Z,8.94
2022-11-29T15:24:53.609Z,9.32
2022-11-29T15:27:20.842Z,9.25
2022-11-29T15:29:48.575Z,9.41
2022-11-29T15:32:18.721Z,9.36
2022-11-29T15:34:53.379Z,9.81
2022-11-29T15:37:21.231Z,10.20
2022-11-29T15:39:48.320Z,9.26
2022-11-29T15:42:18.480Z,9.10
2022-11-29T15:44:46.782Z,9.64
2022-11-29T15:47:14.813Z,9.73
2022-11-29T15:49:41.937Z,9.27
2022-11-29T15:52:18.424Z,9.29
2022-11-29T15:54:52.178Z,9.36
2022-11-29T15:57:24.248Z,8.59
2022-11-29T15:59:51.260Z,7.91
2022-11-29T16:02:19.289Z,9.04
2022-11-29T16:04:52.204Z,9.41
2022-11-29T16:07:19.817Z,8.53
2022-11-29T16:09:48.288Z,9.53
2022-11-29T16:12:16.620Z,9.68
2022-11-29T16:14:51.300Z,9.35
2022-11-29T16:17:19.238Z,9.92
2022-11-29T16:19:47.048Z,9.91
2022-11-29T16:22:24.117Z,9.60
2022-11-29T16:24:51.689Z,10.07
2022-11-29T16:27:19.901Z,9.96
2022-11-29T16:29:47.209Z,10.11
2022-11-29T16:32:15.715Z,9.14
2022-11-29T16:34:42.990Z,8.39
2022-11-29T16:37:18.537Z,7.79
2022-11-29T16:39:46.932Z,7.69
2022-11-29T16:42:15.962Z,6.68
2022-11-29T16:44:48.209Z,7.19
2022-11-29T16:47:23.039Z,6.88
2022-11-29T16:50:05.481Z,6.64
2022-11-29T16:52:33.438Z,7.54
2022-11-29T16:55:01.485Z,7.47
2022-11-29T16:57:29.217Z,6.72
2022-11-29T16:59:56.918Z,6.89
2022-11-29T17:02:24.311Z,6.74
2022-11-29T17:04:51.839Z,6.57
2022-11-29T17:07:26.790Z,7.04
2022-11-29T17:09:54.184Z,6.50
2022-11-29T17:12:21.826Z,7.21
2022-11-29T17:14:49.328Z,6.33
2022-11-29T17:17:17.678Z,6.76
2022-11-29T17:19:45.724Z,7.26
2022-11-29T17:22:13.808Z,7.53
2022-11-29T17:24:47.490Z,7.21
2022-11-29T17:27:15.405Z,7.08
2022-11-29T17:29:42.533Z,8.63
2022-11-29T17:32:09.831Z,8.40
2022-11-29T17:34:37.368Z,7.72
2022-11-29T17:37:04.977Z,7.31
2022-11-29T17:39:32.664Z,7.67
2022-11-29T17:42:00.346Z,8.20
2022-11-29T17:44:27.662Z,8.11
2022-11-29T17:46:54.854Z,8.35
2022-11-29T17:49:22.236Z,7.84
2022-11-29T17:51:52.827Z,8.14
2022-11-29T17:54:21.711Z,7.69
2022-11-29T17:56:49.907Z,6.99
2022-11-29T17:59:17.695Z,7.13
2022-11-29T18:01:47.309Z,6.67
2022-11-29T18:04:18.543Z,6.46
2022-11-29T18:06:49.829Z,6.84
2022-11-29T18:09:19.196Z,7.01
2022-11-29T18:11:49.641Z,6.23
2022-11-29T18:14:19.277Z,6.64
2022-11-29T18:16:46.753Z,7.74
2022-11-29T18:19:16.111Z,6.33
2022-11-29T18:21:44.265Z,6.86
2022-11-29T18:24:11.945Z,7.26
2022-11-29T18:26:39.783Z,6.86
2022-11-29T18:29:08.543Z,6.79
2022-11-29T18:31:37.395Z,6.50
2022-11-29T18:34:11.354Z,6.84
2022-11-29T18:36:40.496Z,6.68
2022-11-29T18:39:11.429Z,6.25
2022-11-29T18:41:40.984Z,6.15
2022-11-29T18:44:09.612Z,7.42
2022-11-29T18:46:38.045Z,7.31
2022-11-29T18:49:08.862Z,6.65
2022-11-29T18:51:37.029Z,6.58
2022-11-29T18:54:04.705Z,7.51
2022-11-29T18:56:34.306Z,7.46
2022-11-29T18:59:03.574Z,7.99
2022-11-29T19:01:34.824Z,8.17
2022-11-29T19:04:02.950Z,6.67
2022-11-29T19:06:38.665Z,7.41
2022-11-29T19:09:10.606Z,6.89
2022-11-29T19:11:38.232Z,8.22
2022-11-29T19:14:08.401Z,8.75
2022-11-29T19:16:38.077Z,9.05
2022-11-29T19:19:05.887Z,8.48
2022-11-29T19:21:34.841Z,7.94
2022-11-29T19:24:03.758Z,8.05
2022-11-29T19:26:31.852Z,8.19
2022-11-29T19:29:00.120Z,9.07
2022-11-29T19:31:28.435Z,9.44
2022-11-29T19:33:56.203Z,8.73
2022-11-29T19:36:25.659Z,9.16
2022-11-29T19:38:54.435Z,8.62
2022-11-29T19:41:22.387Z,9.31
2022-11-29T19:43:50.251Z,8.96
2022-11-29T19:46:19.358Z,7.96
2022-11-29T19:49:02.590Z,8.99
2022-11-29T19:51:30.778Z,8.42
2022-11-29T19:53:59.383Z,8.90
2022-11-29T19:56:27.868Z,8.81
2022-11-29T19:58:56.791Z,9.27
2022-11-29T20:01:28.289Z,8.42
2022-11-29T20:03:56.860Z,8.04
2022-11-29T20:06:26.306Z,9.00
2022-11-29T20:08:53.982Z,8.90
2022-11-29T20:11:22.975Z,8.81
2022-11-29T20:14:00.124Z,8.79
2022-11-29T20:16:28.486Z,8.78
2022-11-29T20:18:56.701Z,9.58
2022-11-29T20:21:25.790Z,8.18
2022-11-29T20:23:56.812Z,8.25
2022-11-29T20:26:24.923Z,8.55
2022-11-29T20:28:53.007Z,8.47
2022-11-29T20:31:23.248Z,8.97
2022-11-29T20:33:55.023Z,8.43
2022-11-29T20:36:29.065Z,8.74
2022-11-29T20:39:08.771Z,8.65
2022-11-29T20:41:46.394Z,8.23
2022-11-29T20:44:20.020Z,7.73
2022-11-29T20:46:48.458Z,8.05
2022-11-29T20:49:17.773Z,7.60
2022-11-29T20:51:48.895Z,8.35
2022-11-29T20:54:17.171Z,8.07
2022-11-29T20:56:44.667Z,7.41
2022-11-29T20:59:12.358Z,7.74
2022-11-29T21:01:41.442Z,8.26
2022-11-29T21:04:08.896Z,7.99
2022-11-29T21:06:39.515Z,8.28
2022-11-29T21:09:07.589Z,8.28
2022-11-29T21:11:43.479Z,8.85
2022-11-29T21:14:11.601Z,8.93
2022-11-29T21:16:40.283Z,8.16
2022-11-29T21:19:09.457Z,7.90
2022-11-29T21:21:44.770Z,7.88
2022-11-29T21:24:23.351Z,7.50
2022-11-29T21:26:51.604Z,7.15
2022-11-29T21:29:19.930Z,7.64
2022-11-29T21:31:48.368Z,7.69
2022-11-29T21:34:15.717Z,7.56
2022-11-29T21:36:43.009Z,8.19
2022-11-29T21:39:13.438Z,8.17
2022-11-29T21:41:40.820Z,8.47
2022-11-29T21:44:08.455Z,8.69
2022-11-29T21:46:35.962Z,8.06
2022-11-29T21:49:03.967Z,8.05
2022-11-29T21:51:31.080Z,8.00
2022-11-29T21:53:58.197Z,8.86
2022-11-29T21:56:25.558Z,8.84
2022-11-29T21:58:52.682Z,8.55
2022-11-29T22:01:20.173Z,7.81
2022-11-29T22:03:47.636Z,8.40
2022-11-29T22:06:16.507Z,8.21
2022-11-29T22:08:43.687Z,8.25
2022-11-29T22:11:12.614Z,8.04
2022-11-29T22:14:01.040Z,8.70
2022-11-29T22:16:29.029Z,8.86
2022-11-29T22:18:56.159Z,8.90
2022-11-29T22:21:24.031Z,8.44
2022-11-29T22:23:54.402Z,8.29
2022-11-29T22:26:21.697Z,7.78
2022-11-29T22:28:48.800Z,8.20
2022-11-29T22:31:16.239Z,9.40
2022-11-29T22:33:44.450Z,9.93
2022-11-29T22:36:12.196Z,10.47
2022-11-29T22:38:39.591Z,9.68
2022-11-29T22:41:08.082Z,9.69
2022-11-29T22:43:35.251Z,9.93
2022-11-29T22:46:07.522Z,10.04
2022-11-29T22:48:38.723Z,9.50
2022-11-29T22:51:07.721Z,8.57
2022-11-29T22:53:35.213Z,8.78
2022-11-29T22:56:03.194Z,8.92
2022-11-29T22:58:30.559Z,8.83
2022-11-29T23:01:01.069Z,9.67
2022-11-29T23:03:28.214Z,8.95
2022-11-29T23:05:55.902Z,9.16
2022-11-29T23:08:25.282Z,9.89
2022-11-29T23:10:56.942Z,9.60
2022-11-29T23:13:24.377Z,9.90
2022-11-29T23:15:51.777Z,8.78
2022-11-29T23:18:19.087Z,8.49
2022-11-29T23:20:46.463Z,8.39
2022-11-29T23:23:13.697Z,8.50
2022-11-29T23:25:49.587Z,9.02
2022-11-29T23:28:17.125Z,8.71
2022-11-29T23:30:44.229Z,8.75
2022-11-29T23:33:11.358Z,9.00
2022-11-29T23:35:38.724Z,8.73
2022-11-29T23:38:06.198Z,8.28
2022-11-29T23:40:33.478Z,7.95
2022-11-29T23:43:00.886Z,8.37
2022-11-29T23:45:28.024Z,8.11
2022-11-29T23:47:55.257Z,8.09
2022-11-29T23:50:22.862Z,7.99
2022-11-29T23:52:53.949Z,7.96
2022-11-29T23:55:21.674Z,8.09
2022-11-29T23:57:49.071Z,8.49
